Time;durP1;ratioP1;P1;durP2;ratioP2;P2;SDS_P1;SDS_P2;PMS_P1;PMS_P2;Temp;Humidity;BMP_temperature;BMP_pressure;BME280_temperature;BME280_humidity;BME280_pressure;Samples;Min_cycle;Max_cycle;Signal;HPM_P1;HPM_P2
2023/10/11 00:03:14;;;;;;;8.40;4.15;;;20.70;75.20;;;;;;5046820;28;20082;-57
2023/10/11 00:05:40;;;;;;;9.55;4.35;;;20.70;75.00;;;;;;5050669;28;20103;-54
2023/10/11 00:08:18;;;;;;;7.95;4.72;;;20.70;75.10;;;;;;5049693;28;20112;-55
2023/10/11 00:10:56;;;;;;;6.78;3.88;;;20.70;75.70;;;;;;5050587;28;20424;-56
2023/10/11 00:13:24;;;;;;;6.30;3.70;;;20.70;75.20;;;;;;5052685;28;20036;-57
2023/10/11 00:15:51;;;;;;;8.40;4.15;;;20.70;75.20;;;;;;5093539;23;20486;-44
2023/10/11 00:18:23;;;;;;;6.60;4.00;;;20.70;75.10;;;;;;5091174;28;20031;-48
2023/10/11 00:20:51;;;;;;;8.35;4.18;;;20.70;75.00;;;;;;5081606;28;20455;-45
2023/10/11 00:23:21;;;;;;;9.50;4.13;;;20.70;75.00;;;;;;5089957;28;20077;-44
2023/10/11 00:25:50;;;;;;;7.45;3.90;;;20.70;75.00;;;;;;5078503;28;20470;-46
2023/10/11 00:28:17;;;;;;;10.15;4.10;;;20.70;75.00;;;;;;5077134;28;20509;-47
2023/10/11 00:30:46;;;;;;;9.20;3.92;;;20.70;75.00;;;;;;5081132;28;20078;-44
2023/10/11 00:33:12;;;;;;;10.48;3.92;;;20.70;74.90;;;;;;5080467;28;20111;-47
2023/10/11 00:35:44;;;;;;;9.57;4.28;;;20.70;74.90;;;;;;5093204;28;20031;-48
2023/10/11 00:38:18;;;;;;;6.90;4.38;;;20.70;74.80;;;;;;5077812;28;20033;-45
2023/10/11 00:41:00;;;;;;;6.88;4.05;;;20.70;74.80;;;;;;5084740;28;20050;-44
2023/10/11 00:43:46;;;;;;;10.20;4.40;;;20.80;74.90;;;;;;5077772;28;20119;-46
2023/10/11 00:46:14;;;;;;;9.32;4.30;;;20.70;74.80;;;;;;5063498;28;20086;-47
2023/10/11 00:48:54;;;;;;;8.18;3.78;;;20.70;74.80;;;;;;5073707;28;20039;-51
2023/10/11 00:51:23;;;;;;;6.45;4.18;;;20.70;74.80;;;;;;5070595;28;20025;-51
2023/10/11 00:53:50;;;;;;;7.50;4.00;;;20.80;74.80;;;;;;5085292;28;20389;-44
2023/10/11 00:56:18;;;;;;;8.73;3.80;;;20.80;75.00;;;;;;5081418;28;20028;-44
2023/10/11 00:58:44;;;;;;;7.53;4.10;;;20.80;74.90;;;;;;5080820;28;20021;-47
2023/10/11 01:01:11;;;;;;;7.40;4.35;;;20.80;74.80;;;;;;5076852;28;20549;-47
2023/10/11 01:03:37;;;;;;;6.13;3.75;;;20.70;74.80;;;;;;5081425;28;20032;-45
2023/10/11 01:06:04;;;;;;;6.20;3.70;;;20.70;74.80;;;;;;5085044;28;20129;-44
2023/10/11 01:08:39;;;;;;;8.85;4.22;;;20.80;75.00;;;;;;5083849;28;20056;-45
2023/10/11 01:11:09;;;;;;;7.47;4.10;;;20.70;75.00;;;;;;5081576;28;20031;-47
2023/10/11 01:13:40;;;;;;;7.00;3.90;;;20.80;74.90;;;;;;5080208;28;20020;-47
2023/10/11 01:16:10;;;;;;;8.13;4.00;;;20.70;75.10;;;;;;5078371;28;20033;-44
2023/10/11 01:18:40;;;;;;;8.40;4.32;;;20.70;74.80;;;;;;5072883;28;20104;-44
2023/10/11 01:21:07;;;;;;;8.32;4.03;;;20.70;74.80;;;;;;5074992;28;20028;-45
2023/10/11 01:23:34;;;;;;;13.65;3.88;;;20.80;74.90;;;;;;5082297;28;20060;-44
2023/10/11 01:26:07;;;;;;;9.30;4.28;;;20.70;75.20;;;;;;5083055;28;20032;-44
2023/10/11 01:28:37;;;;;;;7.65;3.60;;;20.70;75.00;;;;;;5083638;28;20089;-50
2023/10/11 01:31:10;;;;;;;5.93;3.55;;;20.70;75.30;;;;;;5077206;28;20032;-51
2023/10/11 01:33:37;;;;;;;6.07;4.00;;;20.70;74.90;;;;;;5079747;28;20440;-44
2023/10/11 01:36:05;;;;;;;8.05;4.35;;;20.70;74.90;;;;;;5083521;28;20043;-48
2023/10/11 01:38:32;;;;;;;7.35;3.85;;;20.70;75.20;;;;;;5084122;28;20024;-46
2023/10/11 01:40:59;;;;;;;6.57;3.65;;;20.70;74.90;;;;;;5081335;28;20501;-46
2023/10/11 01:43:25;;;;;;;8.45;4.00;;;20.70;74.80;;;;;;5074536;28;20104;-46
2023/10/11 01:45:51;;;;;;;6.47;3.47;;;20.70;75.10;;;;;;5079328;28;20107;-49
2023/10/11 01:48:17;;;;;;;7.75;4.40;;;20.70;74.90;;;;;;5065651;28;20025;-51
2023/10/11 01:50:47;;;;;;;7.25;3.70;;;20.70;74.90;;;;;;5068131;28;20017;-49
2023/10/11 01:53:14;;;;;;;6.75;3.97;;;20.70;74.90;;;;;;5083238;28;20408;-50
2023/10/11 01:55:40;;;;;;;6.95;4.05;;;20.70;74.90;;;;;;5087111;28;20020;-48
2023/10/11 01:58:06;;;;;;;13.07;4.40;;;20.70;75.10;;;;;;5079577;28;20035;-49
2023/10/11 02:00:33;;;;;;;10.55;4.03;;;20.70;75.00;;;;;;5080919;28;20519;-46
2023/10/11 02:02:59;;;;;;;8.25;3.83;;;20.70;75.80;;;;;;5078296;28;20669;-45
2023/10/11 02:05:25;;;;;;;7.20;3.90;;;20.70;74.90;;;;;;5080124;28;20025;-47
2023/10/11 02:07:52;;;;;;;9.88;4.22;;;20.70;75.10;;;;;;5076760;28;20139;-47
2023/10/11 02:10:27;;;;;;;11.90;4.20;;;20.70;74.90;;;;;;5076890;28;20060;-44
2023/10/11 02:12:57;;;;;;;12.77;4.63;;;20.70;75.10;;;;;;5075714;28;20502;-44
2023/10/11 02:15:29;;;;;;;11.50;4.15;;;20.70;75.00;;;;;;5071623;28;20035;-50
2023/10/11 02:17:56;;;;;;;10.50;4.45;;;20.60;75.00;;;;;;5068211;28;20020;-46
2023/10/11 02:20:22;;;;;;;10.00;3.70;;;20.60;75.20;;;;;;5072125;28;20036;-46
2023/10/11 02:22:55;;;;;;;7.78;3.95;;;20.60;74.80;;;;;;5081811;28;20450;-51
2023/10/11 02:25:24;;;;;;;7.40;4.00;;;20.70;75.00;;;;;;5084623;28;20645;-49
2023/10/11 02:27:55;;;;;;;16.13;4.38;;;20.60;75.20;;;;;;5078806;28;20048;-47
2023/10/11 02:30:25;;;;;;;7.60;3.45;;;20.60;75.80;;;;;;5087505;28;20024;-47
2023/10/11 02:32:53;;;;;;;10.18;4.25;;;20.60;75.30;;;;;;5065239;28;20020;-45
2023/10/11 02:35:20;;;;;;;11.48;3.72;;;20.60;75.30;;;;;;5069940;28;20036;-44
2023/10/11 02:37:46;;;;;;;7.63;4.40;;;20.60;74.80;;;;;;5070598;28;20036;-47
2023/10/11 02:40:22;;;;;;;8.05;3.83;;;20.60;75.10;;;;;;5073199;28;20032;-49
2023/10/11 02:42:51;;;;;;;8.73;4.15;;;20.60;75.10;;;;;;5078142;28;20111;-49
2023/10/11 02:45:21;;;;;;;9.93;4.10;;;20.60;75.20;;;;;;5080512;28;20029;-44
2023/10/11 02:47:59;;;;;;;6.97;4.30;;;20.60;74.70;;;;;;5081434;28;20402;-46
2023/10/11 02:50:36;;;;;;;6.43;3.70;;;20.60;74.90;;;;;;5076771;28;20031;-44
2023/10/11 02:53:20;;;;;;;7.63;4.13;;;20.60;74.80;;;;;;5072516;28;20032;-48
2023/10/11 02:55:59;;;;;;;9.57;4.00;;;20.60;75.30;;;;;;5081508;28;20452;-47
2023/10/11 02:58:29;;;;;;;10.55;4.20;;;20.60;75.40;;;;;;5082731;28;20028;-48
2023/10/11 03:01:04;;;;;;;8.65;3.88;;;20.60;74.80;;;;;;5070936;28;20025;-47
2023/10/11 03:03:38;;;;;;;9.48;4.18;;;20.60;74.90;;;;;;5078686;28;20028;-45
2023/10/11 03:06:07;;;;;;;7.75;3.97;;;20.60;75.10;;;;;;5077063;28;20033;-45
2023/10/11 03:08:34;;;;;;;9.20;4.10;;;20.60;74.70;;;;;;5077530;28;20029;-45
2023/10/11 03:11:04;;;;;;;7.53;3.75;;;20.60;74.90;;;;;;5072363;28;20052;-50
2023/10/11 03:13:32;;;;;;;12.48;4.60;;;20.60;75.20;;;;;;5080276;28;20040;-52
2023/10/11 03:15:59;;;;;;;8.82;4.07;;;20.60;74.60;;;;;;5079463;28;20036;-49
2023/10/11 03:18:33;;;;;;;9.85;4.03;;;20.60;75.10;;;;;;5079943;28;20024;-50
2023/10/11 03:21:16;;;;;;;9.57;3.97;;;20.60;74.90;;;;;;5053998;28;20392;-48
2023/10/11 03:23:54;;;;;;;10.90;4.30;;;20.60;74.80;;;;;;5070752;28;20050;-47
2023/10/11 03:26:31;;;;;;;8.68;4.30;;;20.60;74.60;;;;;;5079696;28;20028;-48
2023/10/11 03:29:05;;;;;;;8.02;4.32;;;20.60;75.50;;;;;;5064330;28;20048;-52
2023/10/11 03:31:33;;;;;;;7.65;4.50;;;20.60;74.90;;;;;;5079634;28;20480;-49
2023/10/11 03:34:10;;;;;;;7.60;4.28;;;20.60;75.10;;;;;;5082917;28;20048;-45
2023/10/11 03:36:43;;;;;;;7.93;4.15;;;20.60;74.50;;;;;;5063215;28;20096;-52
2023/10/11 03:39:10;;;;;;;7.28;4.22;;;20.60;74.80;;;;;;5071356;28;20036;-52
2023/10/11 03:41:44;;;;;;;8.98;4.18;;;20.60;74.90;;;;;;5075713;28;20021;-48
2023/10/11 03:44:10;;;;;;;8.65;4.20;;;20.60;74.40;;;;;;5082769;28;20024;-52
2023/10/11 03:46:38;;;;;;;8.23;4.60;;;20.60;74.50;;;;;;5087903;28;20099;-52
2023/10/11 03:50:06;;;;;;;8.02;4.00;;;20.60;74.30;;;;;;5084916;28;20438;-52
2023/10/11 03:52:00;;;;;;;7.68;4.22;;;20.60;74.40;;;;;;5065287;28;20415;-50
2023/10/11 03:54:26;;;;;;;6.88;4.00;;;20.60;74.10;;;;;;5082773;28;20031;-52
2023/10/11 03:56:53;;;;;;;8.55;4.13;;;20.60;74.10;;;;;;5072631;28;20038;-47
2023/10/11 03:59:26;;;;;;;9.40;4.22;;;20.60;74.10;;;;;;5067482;28;20425;-51
2023/10/11 04:01:53;;;;;;;9.57;4.63;;;20.60;73.90;;;;;;5084012;28;20457;-49
2023/10/11 04:04:22;;;;;;;6.25;4.57;;;20.70;74.00;;;;;;5078410;28;20031;-49
2023/10/11 04:06:51;;;;;;;8.32;4.22;;;20.70;74.00;;;;;;5061175;28;20036;-44
2023/10/11 04:12:24;;;;;;;6.72;4.28;;;20.60;73.80;;;;;;5008033;28;20629;-49
2023/10/11 04:14:51;;;;;;;7.72;4.22;;;20.70;73.80;;;;;;5010175;28;20052;-52
2023/10/11 04:19:52;;;;;;;9.00;4.70;;;20.60;73.70;;;;;;5013322;28;20685;-49
2023/10/11 04:22:23;;;;;;;10.98;4.53;;;20.70;73.80;;;;;;5016966;28;20038;-45
2023/10/11 04:24:55;;;;;;;7.35;4.13;;;20.60;73.80;;;;;;5007638;28;20150;-50
2023/10/11 04:29:52;;;;;;;9.23;4.30;;;20.60;73.70;;;;;;5018970;28;20061;-52
2023/10/11 04:35:21;;;;;;;9.88;4.35;;;20.60;73.80;;;;;;5010788;28;20034;-49
2023/10/11 04:38:01;;;;;;;8.32;4.18;;;20.60;73.80;;;;;;5007649;28;20176;-52
2023/10/11 04:43:07;;;;;;;11.32;4.30;;;20.60;73.80;;;;;;5011019;28;20378;-49
2023/10/11 04:45:44;;;;;;;7.53;3.97;;;20.60;73.80;;;;;;5033839;28;20044;-51
2023/10/11 04:48:18;;;;;;;6.50;4.18;;;20.60;73.90;;;;;;5080304;28;20391;-53
2023/10/11 04:50:47;;;;;;;7.07;4.35;;;20.60;73.90;;;;;;5065330;28;20082;-52
2023/10/11 04:53:17;;;;;;;16.30;4.78;;;20.60;73.90;;;;;;5081926;28;20036;-49
2023/10/11 04:55:46;;;;;;;11.32;3.63;;;20.60;73.90;;;;;;5074728;28;20385;-51
2023/10/11 04:58:38;;;;;;;9.52;4.45;;;20.60;75.00;;;;;;5069951;28;20032;-50
2023/10/11 05:01:01;;;;;;;7.60;4.13;;;20.70;74.10;;;;;;5063472;28;20049;-47
2023/10/11 05:03:30;;;;;;;13.27;5.28;;;20.70;74.90;;;;;;5079631;28;20028;-50
2023/10/11 05:05:58;;;;;;;10.55;4.57;;;20.70;74.40;;;;;;5058218;28;20028;-49
2023/10/11 05:08:51;;;;;;;11.70;4.20;;;20.70;75.20;;;;;;5069341;28;20027;-49
2023/10/11 05:13:59;;;;;;;9.35;4.50;;;20.80;74.90;;;;;;5070603;28;20017;-47
2023/10/11 05:16:25;;;;;;;14.70;4.85;;;20.80;74.80;;;;;;5081527;28;20433;-50
2023/10/11 05:18:51;;;;;;;25.70;5.38;;;20.80;74.60;;;;;;5084014;28;20035;-49
2023/10/11 05:21:26;;;;;;;34.80;6.43;;;20.80;74.60;;;;;;5068376;28;20032;-47
2023/10/11 05:24:04;;;;;;;23.52;5.70;;;20.80;74.70;;;;;;5081024;28;20181;-49
2023/10/11 05:26:47;;;;;;;20.80;5.78;;;20.80;75.20;;;;;;5077381;28;20039;-44
2023/10/11 05:29:24;;;;;;;25.67;5.95;;;20.90;75.50;;;;;;5071500;28;20670;-47
2023/10/11 05:32:20;;;;;;;16.92;6.10;;;20.80;74.70;;;;;;5081944;28;20443;-47
2023/10/11 05:51:13;;;;;;;13.35;5.10;;;20.60;74.30;;;;;;5078732;28;20036;-45
2023/10/11 05:53:41;;;;;;;17.83;5.03;;;20.60;74.00;;;;;;5078841;28;20024;-49
2023/10/11 05:56:08;;;;;;;14.60;5.30;;;20.60;74.00;;;;;;5074458;28;20506;-50
2023/10/11 05:58:34;;;;;;;12.48;4.88;;;20.60;74.10;;;;;;5079354;28;20104;-52
2023/10/11 06:01:06;;;;;;;9.93;4.80;;;20.60;74.40;;;;;;5082826;28;20028;-51
2023/10/11 06:03:35;;;;;;;13.23;5.03;;;20.70;74.00;;;;;;5082352;28;20032;-50
2023/10/11 06:06:23;;;;;;;10.25;5.00;;;20.60;73.90;;;;;;5074513;28;20404;-45
2023/10/11 06:08:53;;;;;;;14.38;5.15;;;20.70;74.00;;;;;;5078682;28;20108;-48
2023/10/11 06:11:20;;;;;;;11.20;5.45;;;20.70;74.00;;;;;;5065152;28;20395;-48
2023/10/11 06:13:48;;;;;;;12.70;5.05;;;20.70;73.90;;;;;;5069744;28;20033;-49
2023/10/11 06:16:15;;;;;;;13.27;4.63;;;20.70;73.90;;;;;;5101884;22;20498;-55
2023/10/11 06:18:55;;;;;;;10.57;4.55;;;20.70;73.90;;;;;;5091741;28;20012;-53
2023/10/11 06:21:30;;;;;;;15.98;5.18;;;20.70;73.90;;;;;;5092220;28;20020;-57
2023/10/11 06:24:06;;;;;;;13.50;4.50;;;20.70;73.80;;;;;;5091640;28;20016;-48
2023/10/11 06:29:04;;;;;;;18.65;4.95;;;20.70;73.70;;;;;;5071796;28;20092;-54
2023/10/11 06:31:34;;;;;;;16.30;4.68;;;20.70;73.90;;;;;;5071157;28;20028;-55
2023/10/11 06:34:15;;;;;;;;;;;20.70;73.70;;;;;;5070842;28;20102;-52
2023/10/11 06:36:42;;;;;;;12.68;4.70;;;20.70;73.60;;;;;;5067697;28;19954;-53
2023/10/11 06:39:33;;;;;;;10.52;4.75;;;20.70;73.70;;;;;;5065367;28;20115;-50
2023/10/11 06:41:54;;;;;;;11.63;4.72;;;20.70;73.80;;;;;;5069514;28;20554;-53
2023/10/11 06:44:22;;;;;;;14.05;5.13;;;20.80;74.40;;;;;;5061858;28;20044;-50
2023/10/11 06:46:50;;;;;;;18.75;5.15;;;20.70;74.20;;;;;;5070743;28;20122;-56
2023/10/11 06:49:17;;;;;;;15.10;5.00;;;20.80;73.90;;;;;;5070728;28;20032;-55
2023/10/11 06:51:43;;;;;;;14.43;5.38;;;20.80;74.20;;;;;;5070638;28;20117;-54
2023/10/11 06:54:09;;;;;;;18.42;5.10;;;20.80;74.10;;;;;;5069975;28;20574;-55
2023/10/11 06:56:38;;;;;;;22.17;4.95;;;20.80;74.00;;;;;;5071166;28;20360;-55
2023/10/11 06:59:04;;;;;;;14.10;4.80;;;20.80;73.80;;;;;;5063097;28;20391;-54
2023/10/11 07:01:35;;;;;;;11.02;4.55;;;20.80;74.60;;;;;;5061076;28;20028;-55
2023/10/11 07:04:01;;;;;;;14.13;4.70;;;20.80;75.20;;;;;;5062183;28;20043;-55
2023/10/11 07:06:27;;;;;;;19.75;5.50;;;20.70;73.80;;;;;;5067738;28;20025;-52
2023/10/11 07:08:57;;;;;;;10.90;5.22;;;20.70;71.80;;;;;;5065706;28;20485;-51
2023/10/11 07:14:18;;;;;;;12.10;5.60;;;20.60;71.70;;;;;;5039072;28;20033;-55
2023/10/11 07:16:46;;;;;;;17.13;6.18;;;20.60;70.70;;;;;;5070955;28;20404;-53
2023/10/11 07:19:15;;;;;;;14.07;5.68;;;20.60;70.50;;;;;;5064466;28;20024;-50
2023/10/11 07:24:30;;;;;;;17.30;5.38;;;20.60;71.00;;;;;;5063896;28;20017;-54
2023/10/11 07:26:58;;;;;;;18.42;5.72;;;20.70;71.00;;;;;;5064013;28;20166;-53
2023/10/11 07:29:24;;;;;;;15.02;4.88;;;20.70;71.70;;;;;;5065989;28;20396;-52
2023/10/11 07:31:50;;;;;;;12.68;5.13;;;20.70;71.50;;;;;;5069979;28;20032;-50
2023/10/11 07:34:18;;;;;;;13.60;5.97;;;20.70;71.40;;;;;;5070457;28;20507;-50
2023/10/11 07:36:45;;;;;;;17.20;5.72;;;20.70;71.70;;;;;;5070438;28;20104;-54
2023/10/11 07:39:15;;;;;;;;;;;20.70;71.90;;;;;;5071100;28;20028;-54
2023/10/11 07:41:44;;;;;;;17.50;5.65;;;20.70;72.00;;;;;;5068753;28;19908;-52
2023/10/11 07:44:12;;;;;;;16.08;5.65;;;20.70;71.90;;;;;;5070354;28;20058;-47
2023/10/11 07:46:38;;;;;;;11.75;5.40;;;20.70;72.00;;;;;;5070582;28;20043;-54
2023/10/11 07:49:05;;;;;;;13.15;5.30;;;20.70;71.90;;;;;;5070508;28;20031;-52
2023/10/11 07:51:36;;;;;;;13.15;5.55;;;20.70;72.00;;;;;;5069333;28;20110;-55
2023/10/11 07:54:11;;;;;;;12.13;5.22;;;20.70;72.10;;;;;;5070239;28;20063;-49
2023/10/11 07:56:37;;;;;;;12.70;5.38;;;20.70;72.60;;;;;;5070397;28;20061;-55
2023/10/11 07:59:10;;;;;;;12.55;5.75;;;20.70;72.50;;;;;;5070425;28;20039;-54
2023/10/11 08:01:45;;;;;;;17.33;5.45;;;20.70;72.70;;;;;;5070536;28;20020;-50
2023/10/11 08:04:12;;;;;;;12.95;5.45;;;20.70;72.20;;;;;;5070073;28;20029;-53
2023/10/11 08:06:40;;;;;;;9.85;4.85;;;20.70;72.00;;;;;;5070343;28;20032;-47
2023/10/11 08:09:09;;;;;;;11.95;5.30;;;20.70;72.20;;;;;;5052218;28;20036;-55
2023/10/11 08:11:45;;;;;;;12.45;5.45;;;20.70;72.40;;;;;;5070163;28;20103;-54
2023/10/11 08:14:15;;;;;;;10.90;4.97;;;20.70;72.20;;;;;;5070185;28;20024;-53
2023/10/11 08:16:41;;;;;;;;;;;20.70;72.40;;;;;;5070444;28;20029;-53
2023/10/11 08:19:07;;;;;;;14.77;5.50;;;20.70;72.30;;;;;;5069005;28;19912;-49
2023/10/11 08:21:33;;;;;;;11.82;5.18;;;20.70;72.80;;;;;;5070137;28;20031;-48
2023/10/11 08:23:59;;;;;;;10.93;5.00;;;20.80;73.00;;;;;;5069738;28;20024;-44
2023/10/11 08:26:25;;;;;;;12.10;4.85;;;20.70;72.90;;;;;;5070245;28;20124;-47
2023/10/11 08:28:51;;;;;;;10.95;5.45;;;20.80;72.80;;;;;;5070168;28;20082;-48
2023/10/11 08:33:59;;;;;;;10.63;4.90;;;20.80;73.30;;;;;;5069784;28;20067;-49
2023/10/11 08:36:29;;;;;;;14.25;5.22;;;20.80;73.10;;;;;;5069986;28;20526;-52
2023/10/11 08:39:00;;;;;;;11.70;5.00;;;20.80;72.80;;;;;;5070012;28;20037;-50
2023/10/11 08:41:26;;;;;;;11.18;5.10;;;20.80;72.60;;;;;;5070058;28;20173;-55
2023/10/11 08:43:56;;;;;;;12.85;4.57;;;20.80;72.90;;;;;;5069873;28;20131;-53
2023/10/11 08:46:24;;;;;;;12.65;5.07;;;20.80;72.10;;;;;;5069839;28;20074;-55
2023/10/11 08:48:50;;;;;;;9.40;4.72;;;20.80;72.00;;;;;;5069887;28;20029;-52
2023/10/11 08:51:22;;;;;;;10.93;4.25;;;20.80;71.90;;;;;;5069879;28;20084;-50
2023/10/11 08:54:00;;;;;;;13.05;5.20;;;20.80;71.80;;;;;;5071558;28;20103;-52
2023/10/11 08:56:26;;;;;;;10.95;4.55;;;20.80;71.90;;;;;;5073752;28;20025;-51
2023/10/11 08:58:53;;;;;;;13.75;4.95;;;20.80;71.90;;;;;;5073906;28;20511;-50
2023/10/11 09:01:24;;;;;;;10.95;4.93;;;20.80;71.90;;;;;;5073582;28;20024;-50
2023/10/11 09:04:11;;;;;;;9.70;5.10;;;20.80;72.00;;;;;;5073519;28;20032;-51
2023/10/11 09:06:42;;;;;;;14.45;5.07;;;20.90;72.00;;;;;;5073721;28;20472;-48
2023/10/11 09:09:14;;;;;;;9.68;4.47;;;20.80;72.10;;;;;;5073576;28;20062;-52
2023/10/11 09:11:55;;;;;;;10.45;4.57;;;20.90;71.90;;;;;;5072122;28;20077;-47
2023/10/11 09:14:23;;;;;;;10.13;4.70;;;20.90;72.10;;;;;;5073239;28;20033;-45
2023/10/11 09:16:51;;;;;;;9.32;4.72;;;20.90;72.10;;;;;;5073186;28;20495;-45
2023/10/11 09:19:19;;;;;;;11.98;4.90;;;20.80;71.90;;;;;;5073391;28;20032;-46
2023/10/11 09:22:18;;;;;;;9.80;4.43;;;20.80;72.00;;;;;;5073387;28;20036;-51
2023/10/11 09:24:44;;;;;;;9.82;4.45;;;20.80;72.60;;;;;;5073023;28;20056;-50
2023/10/11 09:27:18;;;;;;;10.70;4.20;;;20.80;72.30;;;;;;5073000;28;20025;-53
2023/10/11 09:29:49;;;;;;;9.88;5.00;;;20.80;72.40;;;;;;5073523;28;20386;-54
2023/10/11 09:32:19;;;;;;;8.90;4.30;;;20.80;72.50;;;;;;5073134;28;20476;-52
2023/10/11 09:34:51;;;;;;;7.85;4.35;;;20.80;72.40;;;;;;5072816;28;20492;-53
2023/10/11 09:37:18;;;;;;;9.15;4.60;;;20.80;72.60;;;;;;5071791;28;20025;-53
2023/10/11 09:39:44;;;;;;;10.85;4.65;;;20.80;72.10;;;;;;5072881;28;20038;-54
2023/10/11 09:42:15;;;;;;;12.07;4.60;;;20.80;72.30;;;;;;5072937;28;20111;-54
2023/10/11 09:44:45;;;;;;;10.35;4.60;;;20.70;72.00;;;;;;5072737;28;20488;-50
2023/10/11 09:47:18;;;;;;;10.82;4.53;;;20.70;72.20;;;;;;5073431;28;20025;-54
2023/10/11 09:49:47;;;;;;;11.73;4.55;;;20.70;72.10;;;;;;5072881;28;20115;-53
2023/10/11 09:52:17;;;;;;;8.20;4.78;;;20.70;72.10;;;;;;5072801;28;20028;-55
2023/10/11 09:54:44;;;;;;;9.55;4.90;;;20.70;72.00;;;;;;5072244;28;20036;-55
2023/10/11 09:57:31;;;;;;;9.05;4.50;;;20.70;72.00;;;;;;5072670;28;20044;-54
2023/10/11 10:00:17;;;;;;;9.13;4.50;;;20.80;72.20;;;;;;5072795;28;20029;-53
2023/10/11 10:02:50;;;;;;;9.82;4.35;;;20.80;72.40;;;;;;5071386;28;20085;-54
2023/10/11 10:05:17;;;;;;;12.00;4.85;;;20.70;72.20;;;;;;5071561;28;20020;-53
2023/10/11 10:07:43;;;;;;;9.63;4.47;;;20.80;72.40;;;;;;5072971;28;20036;-53
2023/10/11 10:10:15;;;;;;;9.02;4.63;;;20.80;72.20;;;;;;5072534;28;20024;-54
2023/10/11 10:12:57;;;;;;;8.52;4.00;;;20.80;72.10;;;;;;5072265;28;20020;-47
2023/10/11 10:15:28;;;;;;;10.60;4.38;;;20.80;72.10;;;;;;5072397;28;20086;-53
2023/10/11 10:17:57;;;;;;;10.40;4.50;;;20.80;72.20;;;;;;5072317;28;20067;-54
2023/10/11 10:20:34;;;;;;;8.23;4.60;;;20.80;72.00;;;;;;5072337;28;20044;-55
2023/10/11 10:23:15;;;;;;;10.27;4.38;;;20.80;72.10;;;;;;5072036;28;20033;-53
2023/10/11 10:25:59;;;;;;;7.95;4.38;;;20.80;72.00;;;;;;5072123;28;20091;-51
2023/10/11 10:28:37;;;;;;;8.93;4.25;;;20.80;72.10;;;;;;5072239;28;20094;-54
2023/10/11 10:31:24;;;;;;;9.73;4.80;;;20.80;72.30;;;;;;5072138;28;20103;-54
2023/10/11 10:34:05;;;;;;;10.30;4.70;;;20.80;72.40;;;;;;5071833;28;20104;-54
2023/10/11 10:36:31;;;;;;;10.25;4.53;;;20.80;72.10;;;;;;5072033;28;20024;-53
2023/10/11 10:39:00;;;;;;;8.85;4.90;;;20.80;72.30;;;;;;5071910;28;20403;-54
2023/10/11 10:41:27;;;;;;;8.30;4.85;;;20.80;72.30;;;;;;5072089;28;20036;-55
2023/10/11 10:44:06;;;;;;;8.45;4.55;;;20.80;72.10;;;;;;5071652;28;20069;-54
2023/10/11 10:46:32;;;;;;;8.07;4.57;;;20.80;72.20;;;;;;5071647;28;20041;-55
2023/10/11 10:48:58;;;;;;;8.80;4.57;;;20.80;72.30;;;;;;5070604;28;20017;-49
2023/10/11 10:51:27;;;;;;;8.48;4.40;;;20.80;72.10;;;;;;5071822;28;20128;-49
2023/10/11 10:53:53;;;;;;;8.77;4.38;;;20.80;72.10;;;;;;5071458;28;20368;-53
2023/10/11 10:56:29;;;;;;;9.90;5.00;;;20.80;72.70;;;;;;5071655;28;20036;-53
2023/10/11 10:59:12;;;;;;;8.85;4.13;;;20.80;72.20;;;;;;5071644;28;20021;-55
2023/10/11 11:01:39;;;;;;;7.90;4.05;;;20.80;72.30;;;;;;5071791;28;20057;-54
2023/10/11 11:04:08;;;;;;;9.32;4.43;;;20.80;72.20;;;;;;5074751;28;20507;-55
2023/10/11 11:06:47;;;;;;;7.97;4.30;;;20.80;72.00;;;;;;5074002;28;20036;-55
2023/10/11 11:09:18;;;;;;;7.13;4.18;;;20.80;72.00;;;;;;5075047;28;20024;-55
2023/10/11 11:11:54;;;;;;;10.43;3.85;;;20.80;72.00;;;;;;5072763;28;20426;-51
2023/10/11 11:14:23;;;;;;;8.13;4.15;;;20.90;72.00;;;;;;5071863;28;20036;-55
2023/10/11 11:16:59;;;;;;;10.05;4.45;;;20.90;72.00;;;;;;5071059;28;20029;-55
2023/10/11 11:19:25;;;;;;;6.85;4.20;;;20.90;72.00;;;;;;5071403;28;20376;-55
2023/10/11 11:22:15;;;;;;;9.85;3.88;;;20.90;71.90;;;;;;5071244;28;20073;-55
2023/10/11 11:24:42;;;;;;;7.53;3.90;;;20.80;71.80;;;;;;5070810;28;20036;-54
2023/10/11 11:27:15;;;;;;;8.63;4.50;;;20.90;71.90;;;;;;5070979;28;20454;-53
2023/10/11 11:29:42;;;;;;;10.10;4.95;;;20.90;71.90;;;;;;5071467;28;20025;-50
2023/10/11 11:32:15;;;;;;;10.80;4.38;;;20.90;71.80;;;;;;5071490;28;20028;-52
2023/10/11 11:35:09;;;;;;;10.55;4.30;;;20.90;71.90;;;;;;5070801;28;20480;-55
2023/10/11 11:37:39;;;;;;;7.22;4.13;;;20.90;71.80;;;;;;5070989;28;20455;-55
2023/10/11 11:40:24;;;;;;;7.72;4.10;;;20.90;71.90;;;;;;5070866;28;20043;-55
2023/10/11 11:42:50;;;;;;;9.38;4.57;;;20.90;71.80;;;;;;5070586;28;20033;-54
2023/10/11 11:45:17;;;;;;;8.38;4.13;;;20.90;71.90;;;;;;5070776;28;20072;-53
2023/10/11 11:47:56;;;;;;;9.45;4.70;;;20.90;72.00;;;;;;5070694;28;20124;-53
2023/10/11 11:50:30;;;;;;;6.50;3.95;;;20.90;72.00;;;;;;5070645;28;20059;-54
2023/10/11 11:52:57;;;;;;;9.88;4.10;;;20.90;71.90;;;;;;5070344;28;20050;-55
2023/10/11 11:55:23;;;;;;;8.32;4.00;;;20.90;71.90;;;;;;5070783;28;20032;-55
2023/10/11 11:57:50;;;;;;;7.50;4.40;;;20.90;71.90;;;;;;5070562;28;20032;-54
2023/10/11 12:02:52;;;;;;;6.53;4.05;;;20.90;71.80;;;;;;5070222;28;20029;-52
2023/10/11 12:05:18;;;;;;;7.55;4.13;;;20.80;72.40;;;;;;5070721;28;20491;-51
2023/10/11 12:07:44;;;;;;;7.88;3.95;;;20.90;71.90;;;;;;5070344;28;20097;-50
2023/10/11 12:10:25;;;;;;;7.97;4.00;;;20.90;71.80;;;;;;5070497;28;20504;-49
2023/10/11 12:13:01;;;;;;;6.82;3.70;;;20.90;71.80;;;;;;5070187;28;20135;-50
2023/10/11 12:15:28;;;;;;;9.73;4.05;;;20.90;72.00;;;;;;5088746;22;21978;-57
2023/10/11 12:17:54;;;;;;;7.68;4.07;;;20.80;72.00;;;;;;5079614;28;20506;-57
2023/10/11 12:20:22;;;;;;;9.65;4.20;;;20.80;71.90;;;;;;5070847;28;20024;-57
2023/10/11 12:22:50;;;;;;;8.55;4.55;;;20.80;71.90;;;;;;5070632;28;20036;-55
2023/10/11 12:25:24;;;;;;;8.95;4.28;;;20.80;71.90;;;;;;5067961;28;20033;-57
2023/10/11 12:27:51;;;;;;;7.30;4.35;;;20.80;71.90;;;;;;5050202;28;20021;-57
2023/10/11 12:30:19;;;;;;;6.70;4.30;;;20.80;71.90;;;;;;5050700;28;20036;-57
2023/10/11 12:32:46;;;;;;;8.63;3.90;;;20.80;72.00;;;;;;5049358;28;20021;-56
2023/10/11 12:35:13;;;;;;;9.27;4.60;;;20.80;72.50;;;;;;5050444;28;20120;-55
2023/10/11 12:37:40;;;;;;;8.90;4.57;;;20.80;72.00;;;;;;5050746;28;20025;-55
2023/10/11 12:40:21;;;;;;;7.30;4.22;;;20.80;72.00;;;;;;5050529;28;20381;-57
2023/10/11 12:42:48;;;;;;;7.53;4.28;;;20.80;72.10;;;;;;5050286;28;20036;-56
2023/10/11 12:45:17;;;;;;;6.72;4.00;;;20.80;72.10;;;;;;5050418;28;20033;-56
2023/10/11 12:47:43;;;;;;;6.80;4.05;;;20.80;72.00;;;;;;5050587;28;20033;-57
2023/10/11 12:50:09;;;;;;;7.65;4.22;;;20.80;72.00;;;;;;5050364;28;20028;-56
2023/10/11 12:52:38;;;;;;;7.72;3.92;;;20.80;72.00;;;;;;5050379;28;20021;-57
2023/10/11 12:55:06;;;;;;;8.05;4.13;;;20.80;72.00;;;;;;5050200;28;20031;-57
2023/10/11 12:57:38;;;;;;;7.63;4.18;;;20.80;72.00;;;;;;5050514;28;20476;-56
2023/10/11 13:02:57;;;;;;;9.18;4.20;;;20.80;72.00;;;;;;5050030;28;20032;-56
2023/10/11 13:05:26;;;;;;;7.78;4.15;;;20.70;72.00;;;;;;5050204;28;20064;-57
2023/10/11 13:07:54;;;;;;;8.18;3.90;;;20.80;72.10;;;;;;5050305;28;20025;-57
2023/10/11 13:10:23;;;;;;;7.50;4.13;;;20.80;72.00;;;;;;5050388;28;20071;-56
2023/10/11 13:12:53;;;;;;;6.25;3.90;;;20.80;72.00;;;;;;5050214;28;20021;-52
2023/10/11 13:15:22;;;;;;;6.25;3.90;;;20.80;72.00;;;;;;5050082;28;20029;-57
2023/10/11 13:17:49;;;;;;;6.53;3.85;;;20.80;72.10;;;;;;5049975;28;20037;-56
2023/10/11 13:20:18;;;;;;;9.00;4.40;;;20.80;72.00;;;;;;5049966;28;20079;-57
2023/10/11 13:22:48;;;;;;;6.28;3.95;;;20.80;72.10;;;;;;5050154;28;20029;-57
2023/10/11 13:25:25;;;;;;;7.20;3.28;;;20.80;71.90;;;;;;5050161;28;20459;-57
2023/10/11 13:27:54;;;;;;;7.50;4.28;;;20.80;72.00;;;;;;5050487;28;20052;-57
2023/10/11 13:30:24;;;;;;;9.57;4.07;;;20.80;72.00;;;;;;5050211;28;20141;-57
2023/10/11 13:32:57;;;;;;;6.95;4.00;;;20.80;72.00;;;;;;5050015;28;20021;-58
2023/10/11 13:35:23;;;;;;;7.03;3.67;;;20.80;72.10;;;;;;5050328;28;20415;-58
2023/10/11 13:37:51;;;;;;;6.25;3.92;;;20.80;72.10;;;;;;5050197;28;20029;-58
2023/10/11 13:40:18;;;;;;;8.68;4.75;;;20.80;72.00;;;;;;5051059;28;20025;-57
2023/10/11 13:42:44;;;;;;;6.65;3.63;;;20.80;72.00;;;;;;5053893;28;20103;-55
2023/10/11 13:45:14;;;;;;;8.13;4.30;;;20.80;72.00;;;;;;5053422;28;20115;-56
2023/10/11 13:47:41;;;;;;;8.48;4.40;;;20.80;71.90;;;;;;5053620;28;20153;-57
2023/10/11 13:50:08;;;;;;;7.20;3.60;;;20.80;72.00;;;;;;5053520;28;20052;-57
2023/10/11 13:52:38;;;;;;;6.78;3.83;;;20.80;72.00;;;;;;5053469;28;20021;-57